Flora, North Dakota
Current Conditions -  °F | °C
As of 7:15 PM on Tuesday 25 Nov 2014 (Local Time) from K5H4 Reporting Station
Light Snow Light Snow  
Wind Chill:   Ceiling: 100
Heat Index: 18°   Visibility: 0.75mi
Dew Point: 16°   Wind: 24mph
Humidity: 93%   Direction: 50°NE
Pressure: 29.92"   Gusts: 30mph
Location:  47.9341°N, 99.5547°W
Report Text: K5H4 260115Z AUTO 05021G26KT 3/4SM -SN OVC001 M08/M09 A2992 RMK AO2 P0009
Loading
Personal Weather Stations






























Interactive Weather Map New forecast layout! Learn more

10-Day Weather Forecast

Advertisements
Track Severe Weather on mobile